SBOSBO MRS / LFML
Speedbird OnlineSpeedbird Online MRS / LFML

Marseille Provence Airport
08:55 15.7°C

Location Marseille, France
Latitude: 43.439271922
Longitude: 5.22142410278
Web Wikipedia
Altitude 23 Meter / 74 Feet
Distance 975 KM / 606 Miles
from London.
Time Zone UTC +2 hours (Europe/Paris)
Codes IATA: MRS
ICAO: LFML
Currency £1 equals EUR 1.15
Runways
RunwayLength (m)Surface
13L3500Asphalt
13R2370Asphalt
31L2370Asphalt
31R3500Asphalt
Radio
TypeDescriptionFrequency
APPAPP/RADAR120.2
ATISATIS125.35
GNDGND121.9
INFOINFO118.85
PFLTPERFLIGHT121.725
TWRTWR118.375
Live ATC
METAR LFML 060630Z AUTO 01004KT CAVOK 15/14 Q1027 TEMPO 3000 BR VV///
TAF TAF LFML 060200Z 0603/0709 VRB03KT CAVOK TX25/0614Z TN13/0706Z TEMPO 0603/0610 3000 BR BKN009 PROB40 TEMPO 0603/0608 0500 FG VV/// TEMPO 0612/0618 25010KT PROB40 TEMPO 0700/0708 3000 BR BKN005 PROB30 TEMPO 0700/0707 0500 FG VV///
Weather As Of 06 Oct 2022 08:55
Description Clear sky
Wind 7 km/h from North (10°)
Cloud Cover 0%
Precipitation Rain: none, Snow: none
Sunrise 07:41
Sunset 19:12
Lounges Salon Cezanne, Hall 1
Luberon Lounge ( Temporarily closed), Main Building
Rotations During the last 90 days there were
174 flights from LHR
187 flights to LHR
1 flights to LGW


© 2017-2022 Speedbird Online